createdAt,value
2022-07-25T00:00:42.979Z,100162.52
2022-07-25T00:03:10.950Z,100157.61
2022-07-25T00:05:38.202Z,100158.36
2022-07-25T00:08:05.766Z,100154.88
2022-07-25T00:10:32.822Z,100155.73
2022-07-25T00:12:59.856Z,100159.27
2022-07-25T00:15:26.821Z,100161.00
2022-07-25T00:17:53.768Z,100165.08
2022-07-25T00:20:21.226Z,100164.38
2022-07-25T00:22:49.095Z,100160.98
2022-07-25T00:25:16.143Z,100158.04
2022-07-25T00:27:43.195Z,100157.70
2022-07-25T00:30:10.756Z,100159.02
2022-07-25T00:32:37.705Z,100157.07
2022-07-25T00:35:05.267Z,100157.92
2022-07-25T00:37:32.620Z,100155.70
2022-07-25T00:39:59.670Z,100151.61
2022-07-25T00:42:26.613Z,100153.46
2022-07-25T00:44:54.098Z,100149.41
2022-07-25T00:47:21.236Z,100151.52
2022-07-25T00:49:48.281Z,100158.64
2022-07-25T00:52:15.224Z,100161.95
2022-07-25T00:54:42.175Z,100165.69
2022-07-25T00:57:09.162Z,100173.10
2022-07-25T00:59:36.166Z,100177.76
2022-07-25T01:02:04.125Z,100175.02
2022-07-25T01:04:31.803Z,100181.01
2022-07-25T01:06:58.852Z,100180.92
2022-07-25T01:09:27.438Z,100180.68
2022-07-25T01:11:54.592Z,100182.23
2022-07-25T01:14:22.738Z,100187.08
2022-07-25T01:16:49.712Z,100189.19
2022-07-25T01:19:17.684Z,100191.92
2022-07-25T01:21:45.889Z,100191.55
2022-07-25T01:24:13.317Z,100189.48
2022-07-25T01:26:40.275Z,100195.48
2022-07-25T01:29:07.249Z,100198.30
2022-07-25T01:31:34.345Z,100202.17
2022-07-25T01:34:01.310Z,100202.69
2022-07-25T01:36:28.975Z,100204.98
2022-07-25T01:38:56.439Z,100207.27
2022-07-25T01:41:23.383Z,100203.05
2022-07-25T01:43:50.263Z,100204.80
2022-07-25T01:46:17.642Z,100202.94
2022-07-25T01:48:44.814Z,100204.83
2022-07-25T01:51:12.302Z,100206.55
2022-07-25T01:53:40.199Z,100203.11
2022-07-25T01:56:10.210Z,100207.88
2022-07-25T01:58:39.100Z,100209.65
2022-07-25T02:01:06.324Z,100209.22
2022-07-25T02:03:33.391Z,100215.63
2022-07-25T02:06:02.408Z,100215.94
2022-07-25T02:08:30.979Z,100213.04
2022-07-25T02:10:58.128Z,100216.05
2022-07-25T02:13:25.379Z,100216.34
2022-07-25T02:15:52.530Z,100217.83
2022-07-25T02:18:19.738Z,100217.70
2022-07-25T02:20:47.247Z,100219.16
2022-07-25T02:23:14.802Z,100219.66
2022-07-25T02:25:41.849Z,100223.36
2022-07-25T02:28:10.670Z,100226.13
2022-07-25T02:30:38.323Z,100225.66
2022-07-25T02:33:05.468Z,100228.46
2022-07-25T02:35:32.515Z,100231.39
2022-07-25T02:38:00.390Z,100233.34
2022-07-25T02:40:27.384Z,100232.54
2022-07-25T02:42:54.284Z,100238.20
2022-07-25T02:45:21.346Z,100237.14
2022-07-25T02:47:48.388Z,100242.38
2022-07-25T02:50:15.569Z,100245.39
2022-07-25T02:52:43.619Z,100249.20
2022-07-25T02:55:11.274Z,100251.31
2022-07-25T02:57:38.329Z,100250.08
2022-07-25T03:00:06.432Z,100249.52
2022-07-25T03:02:33.454Z,100250.52
2022-07-25T03:05:01.666Z,100249.92
2022-07-25T03:07:30.219Z,100248.23
2022-07-25T03:09:57.265Z,100247.67
2022-07-25T03:12:24.314Z,100248.33
2022-07-25T03:14:51.211Z,100250.32
2022-07-25T03:17:18.288Z,100249.09
2022-07-25T03:19:45.260Z,100251.06
2022-07-25T03:22:12.309Z,100252.98
2022-07-25T03:24:39.266Z,100252.90
2022-07-25T03:27:06.215Z,100255.70
2022-07-25T03:29:33.260Z,100254.55
2022-07-25T03:32:01.048Z,100256.20
2022-07-25T03:34:28.184Z,100260.45
2022-07-25T03:36:55.436Z,100260.86
2022-07-25T03:39:22.485Z,100259.67
2022-07-25T03:41:49.543Z,100252.02
2022-07-25T03:44:16.793Z,100247.21
2022-07-25T03:46:43.858Z,100248.30
2022-07-25T03:49:10.965Z,100249.20
2022-07-25T03:51:38.268Z,100249.13
2022-07-25T03:54:06.715Z,100253.20
2022-07-25T03:56:41.558Z,100255.59
2022-07-25T03:59:12.882Z,100259.77
2022-07-25T04:01:40.184Z,100258.66
2022-07-25T04:04:07.948Z,100262.30
2022-07-25T04:06:35.462Z,100264.62
2022-07-25T04:09:04.973Z,100259.50
2022-07-25T04:11:32.133Z,100256.18
2022-07-25T04:14:00.018Z,100256.63
2022-07-25T04:16:27.818Z,100261.45
2022-07-25T04:18:56.295Z,100262.18
2022-07-25T04:21:24.677Z,100263.84
2022-07-25T04:23:51.621Z,100263.09
2022-07-25T04:26:18.773Z,100265.04
2022-07-25T04:28:45.733Z,100266.19
2022-07-25T04:31:13.027Z,100267.52
2022-07-25T04:33:40.311Z,100265.40
2022-07-25T04:36:07.742Z,100268.26
2022-07-25T04:38:35.783Z,100263.49
2022-07-25T04:41:03.861Z,100263.29
2022-07-25T04:43:31.020Z,100266.47
2022-07-25T04:45:58.144Z,100268.54
2022-07-25T04:48:25.334Z,100267.39
2022-07-25T04:50:52.906Z,100267.81
2022-07-25T04:53:19.885Z,100268.66
2022-07-25T04:55:47.430Z,100268.39
2022-07-25T04:58:14.489Z,100271.36
2022-07-25T05:00:41.936Z,100271.88
2022-07-25T05:03:09.104Z,100272.65
2022-07-25T05:05:36.257Z,100277.70
2022-07-25T05:08:03.462Z,100277.21
2022-07-25T05:10:30.674Z,100276.89
2022-07-25T05:12:57.619Z,100277.86
2022-07-25T05:15:25.080Z,100273.43
2022-07-25T05:17:52.027Z,100281.80
2022-07-25T05:20:19.188Z,100283.86
2022-07-25T05:22:46.139Z,100286.55
2022-07-25T05:25:13.188Z,100280.45
2022-07-25T05:27:40.565Z,100284.58
2022-07-25T05:30:09.367Z,100284.23
2022-07-25T05:32:36.543Z,100290.30
2022-07-25T05:35:04.758Z,100289.73
2022-07-25T05:37:31.845Z,100287.50
2022-07-25T05:39:58.996Z,100290.00
2022-07-25T05:42:26.461Z,100286.69
2022-07-25T05:44:53.613Z,100287.60
2022-07-25T05:47:20.768Z,100282.09
2022-07-25T05:49:47.921Z,100282.71
2022-07-25T05:52:15.283Z,100282.69
2022-07-25T05:54:43.153Z,100283.27
2022-07-25T05:57:09.998Z,100282.26
2022-07-25T05:59:37.051Z,100285.60
2022-07-25T06:02:04.155Z,100280.59
2022-07-25T06:04:31.553Z,100276.40
2022-07-25T06:06:58.604Z,100276.00
2022-07-25T06:09:25.558Z,100276.63
2022-07-25T06:12:00.348Z,100274.02
2022-07-25T06:14:28.996Z,100271.32
2022-07-25T06:16:57.166Z,100274.08
2022-07-25T06:19:24.407Z,100270.07
2022-07-25T06:21:51.978Z,100266.94
2022-07-25T06:24:19.443Z,100265.56
2022-07-25T06:26:47.057Z,100266.14
2022-07-25T06:29:14.972Z,100264.65
2022-07-25T06:31:42.096Z,100257.03
2022-07-25T06:34:13.182Z,100255.21
2022-07-25T06:36:40.228Z,100255.53
2022-07-25T06:39:07.794Z,100250.63
2022-07-25T06:41:37.821Z,100251.70
2022-07-25T06:44:05.486Z,100248.63
2022-07-25T06:46:33.294Z,100246.96
2022-07-25T06:49:00.480Z,100245.63
2022-07-25T06:51:28.187Z,100247.27
2022-07-25T06:53:56.913Z,100245.73
2022-07-25T06:56:24.541Z,100246.87
2022-07-25T06:58:53.531Z,100247.67
2022-07-25T07:01:20.686Z,100247.40
2022-07-25T07:03:48.623Z,100242.34
2022-07-25T07:06:16.115Z,100239.86
2022-07-25T07:08:44.187Z,100246.47
2022-07-25T07:11:11.164Z,100244.90
2022-07-25T07:13:39.012Z,100238.19
2022-07-25T07:16:06.708Z,100234.51
2022-07-25T07:18:33.712Z,100234.82
2022-07-25T07:21:00.975Z,100235.23
2022-07-25T07:23:28.991Z,100231.70
2022-07-25T07:25:56.919Z,100236.45
2022-07-25T07:28:24.005Z,100238.47
2022-07-25T07:33:38.458Z,100247.15
2022-07-25T07:36:06.393Z,100246.91
2022-07-25T07:38:35.063Z,100246.67
2022-07-25T07:41:02.075Z,100247.13
2022-07-25T07:43:32.036Z,100250.23
2022-07-25T07:46:01.519Z,100248.34
2022-07-25T07:48:30.065Z,100249.55
2022-07-25T07:50:57.650Z,100250.45
2022-07-25T07:53:44.670Z,100244.62
2022-07-25T07:56:12.406Z,100247.08
2022-07-25T07:58:39.485Z,100243.69
2022-07-25T08:01:06.684Z,100246.58
2022-07-25T08:03:33.706Z,100242.10
2022-07-25T08:06:00.748Z,100244.40
2022-07-25T08:08:31.121Z,100248.56
2022-07-25T08:10:59.428Z,100242.54
2022-07-25T08:13:31.319Z,100237.92
2022-07-25T08:15:59.679Z,100233.33
2022-07-25T08:18:30.019Z,100232.33
2022-07-25T08:20:57.715Z,100227.89
2022-07-25T08:23:25.913Z,100227.33
2022-07-25T08:25:52.941Z,100227.65
2022-07-25T08:28:20.322Z,100227.40
2022-07-25T08:30:47.712Z,100231.77
2022-07-25T08:33:16.458Z,100231.74
2022-07-25T08:35:48.696Z,100231.89
2022-07-25T08:38:16.530Z,100235.14
2022-07-25T08:40:43.548Z,100232.59
2022-07-25T08:43:14.730Z,100231.26
2022-07-25T08:45:46.489Z,100228.59
2022-07-25T08:48:14.227Z,100230.26
2022-07-25T08:50:41.789Z,100233.54
2022-07-25T08:55:56.065Z,100225.64
2022-07-25T08:58:23.154Z,100221.88
2022-07-25T09:00:50.887Z,100220.98
2022-07-25T09:03:18.033Z,100224.52
2022-07-25T09:05:45.274Z,100225.14
2022-07-25T09:08:17.721Z,100223.35
2022-07-25T09:10:52.160Z,100223.61
2022-07-25T09:13:20.799Z,100228.01
2022-07-25T09:15:56.791Z,100221.13
2022-07-25T09:18:25.127Z,100216.11
2022-07-25T09:20:59.958Z,100219.77
2022-07-25T09:23:33.769Z,100217.34
2022-07-25T09:26:14.238Z,100212.45
2022-07-25T09:28:48.333Z,100212.33
2022-07-25T09:31:16.815Z,100209.23
2022-07-25T09:33:48.185Z,100211.84
2022-07-25T09:36:15.233Z,100208.38
2022-07-25T09:38:55.184Z,100205.64
2022-07-25T09:41:22.434Z,100209.93
2022-07-25T09:43:49.588Z,100203.36
2022-07-25T09:46:17.178Z,100203.17
2022-07-25T09:48:46.092Z,100203.06
2022-07-25T09:51:13.808Z,100199.02
2022-07-25T09:53:40.962Z,100199.36
2022-07-25T09:56:08.826Z,100199.20
2022-07-25T09:58:35.876Z,100198.52
2022-07-25T10:01:06.481Z,100198.04
2022-07-25T10:03:52.107Z,100196.50
2022-07-25T10:06:28.464Z,100195.58
2022-07-25T10:08:55.517Z,100197.71
2022-07-25T10:11:24.301Z,100200.70
2022-07-25T10:13:52.900Z,100204.23
2022-07-25T10:16:25.045Z,100203.85
2022-07-25T10:18:56.850Z,100207.48
2022-07-25T10:21:27.273Z,100198.86
2022-07-25T10:23:59.133Z,100191.17
2022-07-25T10:26:27.205Z,100192.19
2022-07-25T10:28:59.377Z,100196.84
2022-07-25T10:31:34.261Z,100191.44
2022-07-25T10:34:03.729Z,100192.77
2022-07-25T10:37:10.264Z,100192.59
2022-07-25T10:39:39.124Z,100190.72
2022-07-25T10:42:06.337Z,100186.95
2022-07-25T10:44:48.541Z,100182.02
2022-07-25T10:47:17.008Z,100181.70
2022-07-25T10:50:06.825Z,100182.91
2022-07-25T10:52:33.560Z,100174.61
2022-07-25T10:55:01.743Z,100169.60
2022-07-25T10:57:32.068Z,100170.15
2022-07-25T11:00:07.084Z,100163.90
2022-07-25T11:02:34.696Z,100164.94
2022-07-25T11:05:03.288Z,100169.21
2022-07-25T11:07:36.460Z,100169.16
2022-07-25T11:10:05.449Z,100167.91
2022-07-25T11:12:32.745Z,100163.89
2022-07-25T11:15:05.119Z,100164.11
2022-07-25T11:17:32.852Z,100163.68
2022-07-25T11:20:06.043Z,100166.84
2022-07-25T11:22:33.299Z,100167.45
2022-07-25T11:25:00.797Z,100170.07
2022-07-25T11:27:32.839Z,100170.27
2022-07-25T11:30:14.912Z,100169.00
2022-07-25T11:32:46.789Z,100170.06
2022-07-25T11:35:14.863Z,100167.94
2022-07-25T11:37:47.915Z,100168.45
2022-07-25T11:40:16.700Z,100162.74
2022-07-25T11:42:48.304Z,100154.36
2022-07-25T11:45:26.418Z,100155.22
2022-07-25T11:48:07.915Z,100158.66
2022-07-25T11:50:37.097Z,100153.39
2022-07-25T11:53:11.322Z,100148.33
2022-07-25T11:55:43.582Z,100146.99
2022-07-25T11:58:13.085Z,100146.56
2022-07-25T12:00:41.924Z,100143.30
2022-07-25T12:03:15.464Z,100142.08
2022-07-25T12:05:46.023Z,100141.62
2022-07-25T12:08:15.580Z,100141.46
2022-07-25T12:10:44.289Z,100144.82
2022-07-25T12:13:25.110Z,100137.81
2022-07-25T12:15:52.659Z,100133.30
2022-07-25T12:18:20.334Z,100131.45
2022-07-25T12:20:47.285Z,100128.98
2022-07-25T12:23:14.748Z,100133.59
2022-07-25T12:25:45.994Z,100131.08
2022-07-25T12:28:15.335Z,100129.59
2022-07-25T12:30:43.801Z,100127.15
2022-07-25T12:33:12.775Z,100130.48
2022-07-25T12:35:44.496Z,100132.14
2022-07-25T12:38:12.081Z,100123.52
2022-07-25T12:40:39.393Z,100122.67
2022-07-25T12:43:08.782Z,100121.68
2022-07-25T12:45:36.831Z,100121.30
2022-07-25T12:48:04.683Z,100120.41
2022-07-25T12:50:32.022Z,100121.20
2022-07-25T12:52:59.484Z,100115.39
2022-07-25T12:55:26.528Z,100114.39
2022-07-25T12:57:53.505Z,100111.46
2022-07-25T13:00:21.648Z,100112.29
2022-07-25T13:02:49.478Z,100108.41
2022-07-25T13:05:17.281Z,100103.55
2022-07-25T13:07:45.144Z,100104.34
2022-07-25T13:10:12.915Z,100099.91
2022-07-25T13:12:39.964Z,100094.67
2022-07-25T13:15:08.231Z,100097.15
2022-07-25T13:17:35.900Z,100095.60
2022-07-25T13:20:03.355Z,100096.98
2022-07-25T13:22:30.401Z,100099.30
2022-07-25T13:24:57.461Z,100101.20
2022-07-25T13:27:25.009Z,100092.69
2022-07-25T13:29:54.934Z,100092.95
2022-07-25T13:32:22.892Z,100091.25
2022-07-25T13:34:50.367Z,100089.78
2022-07-25T13:37:17.403Z,100085.73
2022-07-25T13:39:44.482Z,100080.56
2022-07-25T13:42:11.511Z,100076.65
2022-07-25T13:44:38.491Z,100074.71
2022-07-25T13:47:05.588Z,100077.65
2022-07-25T13:49:32.816Z,100073.73
2022-07-25T13:51:59.843Z,100061.20
2022-07-25T13:54:27.073Z,100070.45
2022-07-25T13:56:54.119Z,100069.58
2022-07-25T13:59:22.003Z,100073.85
2022-07-25T14:01:50.214Z,100075.62
2022-07-25T14:04:17.526Z,100069.90
2022-07-25T14:06:44.572Z,100066.18
2022-07-25T14:09:11.789Z,100070.14
2022-07-25T14:11:38.981Z,100068.13
2022-07-25T14:14:06.033Z,100065.38
2022-07-25T14:16:34.151Z,100061.41
2022-07-25T14:19:02.288Z,100058.73
2022-07-25T14:21:30.448Z,100056.71
2022-07-25T14:23:57.398Z,100053.45
2022-07-25T14:26:24.458Z,100053.63
2022-07-25T14:28:51.430Z,100053.23
2022-07-25T14:31:18.692Z,100054.85
2022-07-25T14:33:45.643Z,100055.35
2022-07-25T14:36:13.062Z,100055.11
2022-07-25T14:38:39.940Z,100059.98
2022-07-25T14:41:12.354Z,100059.76
2022-07-25T14:43:40.723Z,100058.28
2022-07-25T14:46:08.439Z,100058.04
2022-07-25T14:48:36.692Z,100056.58
2022-07-25T14:51:04.286Z,100054.88
2022-07-25T14:53:32.464Z,100052.14
2022-07-25T14:56:01.083Z,100047.55
2022-07-25T14:58:28.194Z,100041.99
2022-07-25T15:00:55.133Z,100039.29
2022-07-25T15:03:22.401Z,100041.23
2022-07-25T15:05:49.390Z,100042.55
2022-07-25T15:08:16.608Z,100040.05
2022-07-25T15:10:43.758Z,100043.34
2022-07-25T15:15:57.899Z,100045.14
2022-07-25T15:18:25.085Z,100045.50
2022-07-25T15:20:52.229Z,100041.48
2022-07-25T15:23:21.408Z,100039.60
2022-07-25T15:26:04.755Z,100039.24
2022-07-25T15:28:36.956Z,100041.91
2022-07-25T15:31:04.995Z,100044.36
2022-07-25T15:33:32.380Z,100043.33
2022-07-25T15:35:59.538Z,100042.09
2022-07-25T15:38:26.583Z,100043.11
2022-07-25T15:40:53.635Z,100044.81
2022-07-25T15:43:21.121Z,100046.32
2022-07-25T15:45:48.655Z,100039.61
2022-07-25T15:48:16.733Z,100040.02
2022-07-25T15:50:47.771Z,100038.10
2022-07-25T15:53:14.723Z,100039.97
2022-07-25T15:55:41.878Z,100043.47
2022-07-25T15:58:09.660Z,100048.97
2022-07-25T16:00:37.300Z,100047.86
2022-07-25T16:03:04.770Z,100052.23
2022-07-25T16:05:31.722Z,100051.23
2022-07-25T16:08:02.151Z,100052.85
2022-07-25T16:10:30.228Z,100056.20
2022-07-25T16:12:57.180Z,100056.09
2022-07-25T16:15:25.357Z,100056.96
2022-07-25T16:17:53.859Z,100055.77
2022-07-25T16:20:20.892Z,100058.09
2022-07-25T16:22:49.274Z,100064.36
2022-07-25T16:25:16.325Z,100065.77
2022-07-25T16:27:43.280Z,100063.48
2022-07-25T16:30:10.831Z,100066.59
2022-07-25T16:32:37.883Z,100064.67
2022-07-25T16:35:05.739Z,100067.91
2022-07-25T16:37:33.022Z,100069.97
2022-07-25T16:39:59.975Z,100069.20
2022-07-25T16:42:27.026Z,100073.31
2022-07-25T16:44:53.974Z,100074.48
2022-07-25T16:47:21.846Z,100075.45
2022-07-25T16:49:49.414Z,100075.69
2022-07-25T16:52:16.465Z,100078.72
2022-07-25T16:54:43.719Z,100076.75
2022-07-25T16:57:10.873Z,100076.67
2022-07-25T16:59:38.131Z,100078.97
2022-07-25T17:02:05.351Z,100081.05
2022-07-25T17:04:32.699Z,100083.50
2022-07-25T17:06:59.803Z,100085.05
2022-07-25T17:09:26.844Z,100086.16
2022-07-25T17:11:53.692Z,100085.41
2022-07-25T17:14:21.704Z,100085.13
2022-07-25T17:16:51.491Z,100088.06
2022-07-25T17:19:19.773Z,100090.83
2022-07-25T17:21:47.235Z,100095.75
2022-07-25T17:24:14.396Z,100100.51
2022-07-25T17:26:41.495Z,100101.02
2022-07-25T17:29:08.964Z,100105.77
2022-07-25T17:31:37.083Z,100112.27
2022-07-25T17:34:04.819Z,100117.66
2022-07-25T17:36:31.812Z,100118.79
2022-07-25T17:38:58.767Z,100118.02
2022-07-25T17:41:25.822Z,100117.44
2022-07-25T17:43:52.981Z,100119.36
2022-07-25T17:46:20.091Z,100118.58
2022-07-25T17:48:47.313Z,100120.27
2022-07-25T17:51:14.338Z,100126.33
2022-07-25T17:53:42.670Z,100127.88
2022-07-25T17:56:09.763Z,100132.30
2022-07-25T17:58:37.206Z,100134.19
2022-07-25T18:01:09.899Z,100137.03
2022-07-25T18:03:38.237Z,100134.08
2022-07-25T18:06:05.742Z,100143.17
2022-07-25T18:08:35.544Z,100143.17
2022-07-25T18:11:03.907Z,100140.98
2022-07-25T18:13:31.055Z,100141.89
2022-07-25T18:15:58.168Z,100144.02
2022-07-25T18:18:25.228Z,100144.83
2022-07-25T18:20:52.811Z,100148.52
2022-07-25T18:23:20.399Z,100149.95
2022-07-25T18:25:48.037Z,100154.16
2022-07-25T18:28:15.717Z,100155.17
2022-07-25T18:30:42.794Z,100156.61
2022-07-25T18:33:11.112Z,100161.21
2022-07-25T18:35:38.612Z,100165.73
2022-07-25T18:38:06.235Z,100166.34
2022-07-25T18:40:34.377Z,100165.86
2022-07-25T18:43:04.056Z,100166.83
2022-07-25T18:45:38.936Z,100167.91
2022-07-25T18:48:07.225Z,100170.48
2022-07-25T18:50:34.261Z,100169.44
2022-07-25T18:53:01.412Z,100166.65
2022-07-25T18:55:28.557Z,100164.73
2022-07-25T18:57:55.705Z,100164.31
2022-07-25T19:00:22.857Z,100166.55
2022-07-25T19:02:50.821Z,100165.20
2022-07-25T19:05:18.802Z,100163.67
2022-07-25T19:07:45.950Z,100162.42
2022-07-25T19:10:13.192Z,100165.05
2022-07-25T19:12:40.249Z,100165.23
2022-07-25T19:15:07.895Z,100164.96
2022-07-25T19:17:35.253Z,100164.84
2022-07-25T19:20:02.526Z,100161.63
2022-07-25T19:22:29.752Z,100167.33
2022-07-25T19:24:57.175Z,100168.92
2022-07-25T19:27:26.104Z,100168.15
2022-07-25T19:29:54.394Z,100164.98
2022-07-25T19:32:22.822Z,100163.93
2022-07-25T19:34:49.829Z,100165.47
2022-07-25T19:37:17.179Z,100167.30
2022-07-25T19:39:44.130Z,100170.90
2022-07-25T19:42:12.522Z,100176.64
2022-07-25T19:44:39.677Z,100175.05
2022-07-25T19:47:11.204Z,100173.51
2022-07-25T19:49:40.243Z,100174.66
2022-07-25T19:52:08.993Z,100171.42
2022-07-25T19:54:36.301Z,100171.05
2022-07-25T19:57:03.762Z,100171.62
2022-07-25T19:59:30.920Z,100172.27
2022-07-25T20:01:58.077Z,100176.02
2022-07-25T20:04:25.652Z,100178.89
2022-07-25T20:06:53.227Z,100182.33
2022-07-25T20:09:20.892Z,100185.45
2022-07-25T20:11:47.946Z,100185.20
2022-07-25T20:14:15.929Z,100185.70
2022-07-25T20:16:43.044Z,100186.63
2022-07-25T20:19:11.995Z,100186.27
2022-07-25T20:21:39.659Z,100182.83
2022-07-25T20:24:07.492Z,100187.56
2022-07-25T20:26:35.198Z,100191.41
2022-07-25T20:29:02.766Z,100195.23
2022-07-25T20:31:29.996Z,100194.56
2022-07-25T20:33:57.922Z,100195.93
2022-07-25T20:36:25.481Z,100196.35
2022-07-25T20:38:53.044Z,100193.91
2022-07-25T20:41:20.512Z,100196.39
2022-07-25T20:43:48.079Z,100195.59
2022-07-25T20:46:15.095Z,100195.27
2022-07-25T20:48:42.070Z,100195.38
2022-07-25T20:51:09.150Z,100196.39
2022-07-25T20:53:36.207Z,100194.70
2022-07-25T20:56:03.261Z,100196.69
2022-07-25T20:58:30.656Z,100198.86
2022-07-25T21:00:59.885Z,100198.25
2022-07-25T21:03:27.086Z,100197.46
2022-07-25T21:05:53.934Z,100195.46
2022-07-25T21:08:20.984Z,100197.92
2022-07-25T21:10:48.034Z,100196.95
2022-07-25T21:13:18.385Z,100196.81
2022-07-25T21:15:45.718Z,100196.95
2022-07-25T21:18:12.770Z,100196.84
2022-07-25T21:20:39.717Z,100198.27
2022-07-25T21:23:06.866Z,100197.10
2022-07-25T21:25:33.915Z,100197.17
2022-07-25T21:28:00.966Z,100198.61
2022-07-25T21:30:27.911Z,100199.92
2022-07-25T21:32:54.960Z,100200.29
2022-07-25T21:35:22.423Z,100194.17
2022-07-25T21:37:49.885Z,100197.80
2022-07-25T21:40:16.933Z,100199.08
2022-07-25T21:42:43.882Z,100200.41
2022-07-25T21:45:11.579Z,100200.31
2022-07-25T21:47:38.500Z,100199.44
2022-07-25T21:50:25.751Z,100199.56
2022-07-25T21:52:53.900Z,100199.75
2022-07-25T21:55:21.466Z,100197.28
2022-07-25T21:57:49.141Z,100195.36
2022-07-25T22:00:16.942Z,100192.30
2022-07-25T22:02:45.203Z,100190.27
2022-07-25T22:05:13.493Z,100188.84
2022-07-25T22:07:40.812Z,100187.17
